createdAt,value
2019-05-11T00:00:13.354Z,9.69
2019-05-11T00:05:13.341Z,9.63
2019-05-11T00:10:13.298Z,9.63
2019-05-11T00:15:13.389Z,9.56
2019-05-11T00:20:13.383Z,9.44
2019-05-11T00:25:13.324Z,9.13
2019-05-11T00:30:13.371Z,9.06
2019-05-11T00:35:13.277Z,9.06
2019-05-11T00:40:14.907Z,9
2019-05-11T00:45:13.322Z,9
2019-05-11T00:50:13.268Z,9
2019-05-11T00:55:13.301Z,9
2019-05-11T01:00:13.327Z,9
2019-05-11T01:05:13.294Z,8.94
2019-05-11T01:10:23.467Z,8.88
2019-05-11T01:15:13.300Z,8.81
2019-05-11T01:20:13.284Z,8.69
2019-05-11T01:25:13.282Z,8.56
2019-05-11T01:30:13.317Z,8.56
2019-05-11T01:35:13.305Z,8.5
2019-05-11T01:40:13.240Z,8.5
2019-05-11T01:45:13.270Z,8.5
2019-05-11T01:50:13.296Z,8.5
2019-05-11T01:55:13.267Z,8.63
2019-05-11T02:00:13.261Z,8.63
2019-05-11T02:05:13.275Z,8.63
2019-05-11T02:10:13.282Z,8.69
2019-05-11T02:15:13.272Z,8.75
2019-05-11T02:20:13.257Z,8.81
2019-05-11T02:25:13.246Z,8.94
2019-05-11T02:30:13.250Z,9
2019-05-11T02:35:13.262Z,9
2019-05-11T02:40:13.268Z,8.94
2019-05-11T02:45:13.206Z,8.81
2019-05-11T02:50:13.365Z,8.75
2019-05-11T02:55:13.211Z,8.75
2019-05-11T03:00:13.257Z,8.63
2019-05-11T03:05:13.233Z,8.63
2019-05-11T03:10:13.247Z,8.63
2019-05-11T03:15:13.235Z,8.63
2019-05-11T03:20:13.222Z,8.63
2019-05-11T03:25:13.212Z,8.5
2019-05-11T03:30:13.229Z,8.5
2019-05-11T03:35:13.221Z,8.56
2019-05-11T03:40:13.209Z,8.63
2019-05-11T03:45:13.212Z,8.56
2019-05-11T03:50:13.162Z,8.63
2019-05-11T03:55:13.166Z,8.63
2019-05-11T04:00:13.210Z,8.63
2019-05-11T04:05:13.193Z,8.63
2019-05-11T04:10:13.196Z,8.56
2019-05-11T04:15:13.231Z,8.56
2019-05-11T04:20:13.184Z,8.56
2019-05-11T04:25:13.197Z,8.69
2019-05-11T04:30:13.181Z,8.75
2019-05-11T04:35:13.228Z,8.81
2019-05-11T04:40:13.187Z,8.94
2019-05-11T04:45:13.134Z,9.06
2019-05-11T04:50:13.163Z,9.13
2019-05-11T04:55:13.179Z,9.19
2019-05-11T05:00:13.181Z,9.25
2019-05-11T05:05:13.162Z,9.44
2019-05-11T05:10:13.863Z,9.56
2019-05-11T05:15:13.151Z,9.75
2019-05-11T05:20:13.169Z,9.75
2019-05-11T05:25:13.173Z,9.75
2019-05-11T05:30:13.109Z,9.75
2019-05-11T05:35:18.152Z,9.75
2019-05-11T05:40:13.138Z,9.81
2019-05-11T05:45:13.165Z,9.81
2019-05-11T05:50:13.154Z,9.81
2019-05-11T05:55:13.099Z,9.75
2019-05-11T06:00:13.142Z,9.75
2019-05-11T06:05:13.259Z,9.69
2019-05-11T06:10:13.128Z,9.81
2019-05-11T06:15:13.116Z,10.06
2019-05-11T06:20:13.113Z,10.19
2019-05-11T06:25:13.124Z,10.38
2019-05-11T06:30:13.112Z,10.44
2019-05-11T06:35:13.143Z,10.5
2019-05-11T06:40:13.099Z,10.63
2019-05-11T06:45:13.107Z,10.63
2019-05-11T06:50:13.131Z,10.56
2019-05-11T06:55:13.107Z,10.69
2019-05-11T07:00:13.096Z,10.81
2019-05-11T07:05:13.126Z,10.94
2019-05-11T07:10:13.057Z,10.88
2019-05-11T07:15:13.116Z,10.88
2019-05-11T07:20:13.063Z,10.88
2019-05-11T07:25:13.088Z,10.94
2019-05-11T07:30:13.107Z,10.94
2019-05-11T07:35:13.087Z,11.06
2019-05-11T07:40:13.080Z,11.06
2019-05-11T07:45:13.085Z,10.94
2019-05-11T07:50:13.067Z,10.94
2019-05-11T07:55:13.076Z,10.69
2019-05-11T08:00:13.064Z,10.56
2019-05-11T08:05:13.021Z,10.5
2019-05-11T08:10:13.075Z,10.44
2019-05-11T08:15:13.861Z,10.31
2019-05-11T08:20:13.065Z,10.25
2019-05-11T08:25:13.045Z,10.19
2019-05-11T08:30:13.059Z,10.19
2019-05-11T08:35:13.089Z,10.25
2019-05-11T08:40:13.044Z,10.25
2019-05-11T08:45:19.695Z,10.31
2019-05-11T08:50:15.171Z,10.31
2019-05-11T08:55:13.042Z,10.25
2019-05-11T09:00:13.028Z,10.25
2019-05-11T09:05:12.989Z,10.31
2019-05-11T09:10:13.040Z,10.19
2019-05-11T09:15:28.017Z,10.19
2019-05-11T09:20:12.985Z,10.19
2019-05-11T09:25:13.069Z,10.13
2019-05-11T09:30:13.004Z,10.13
2019-05-11T09:35:13.022Z,10.13
2019-05-11T09:40:12.974Z,10.19
2019-05-11T09:45:13.000Z,10.19
2019-05-11T09:50:13.025Z,10.19
2019-05-11T09:55:12.999Z,10.25
2019-05-11T10:00:12.998Z,10.31
2019-05-11T10:05:13.016Z,10.31
2019-05-11T10:10:12.995Z,10.31
2019-05-11T10:15:12.994Z,10.38
2019-05-11T10:20:12.989Z,10.38
2019-05-11T10:25:12.982Z,10.38
2019-05-11T10:30:12.996Z,10.44
2019-05-11T10:35:12.976Z,10.5
2019-05-11T10:40:12.941Z,10.63
2019-05-11T10:45:12.979Z,10.69
2019-05-11T10:50:12.960Z,10.75
2019-05-11T10:55:12.978Z,10.75
2019-05-11T11:00:13.006Z,10.75
2019-05-11T11:05:12.977Z,10.81
2019-05-11T11:10:13.091Z,10.81
2019-05-11T11:15:12.960Z,10.75
2019-05-11T11:20:12.988Z,10.75
2019-05-11T11:25:12.910Z,10.75
2019-05-11T11:30:12.952Z,10.75
2019-05-11T11:35:12.950Z,10.69
2019-05-11T11:40:12.981Z,10.69
2019-05-11T11:45:12.934Z,10.75
2019-05-11T11:50:12.955Z,10.75
2019-05-11T11:55:12.943Z,10.69
2019-05-11T12:00:12.934Z,10.69
2019-05-11T12:05:12.936Z,10.63
2019-05-11T12:10:12.923Z,10.63
2019-05-11T12:15:12.921Z,10.56
2019-05-11T12:20:12.969Z,10.56
2019-05-11T12:25:12.912Z,10.56
2019-05-11T12:30:12.922Z,10.56
2019-05-11T12:35:12.976Z,10.56
2019-05-11T12:40:12.905Z,10.63
2019-05-11T12:45:12.872Z,10.63
2019-05-11T12:50:12.919Z,10.63
2019-05-11T12:55:12.909Z,10.56
2019-05-11T13:00:12.921Z,10.56
2019-05-11T13:05:12.896Z,10.38
2019-05-11T13:10:12.892Z,10.25
2019-05-11T13:15:12.919Z,10.13
2019-05-11T13:20:13.251Z,10.13
2019-05-11T13:25:12.905Z,10.06
2019-05-11T13:30:12.845Z,10.06
2019-05-11T13:35:12.875Z,10.13
2019-05-11T13:40:12.885Z,10.13
2019-05-11T13:45:12.834Z,10.19
2019-05-11T13:50:12.890Z,10.19
2019-05-11T13:55:12.865Z,10.25
2019-05-11T14:00:12.855Z,10.25
2019-05-11T14:05:12.863Z,10.31
2019-05-11T14:10:12.862Z,10.25
2019-05-11T14:15:12.853Z,10.13
2019-05-11T14:20:12.852Z,10.13
2019-05-11T14:25:12.815Z,10.13
2019-05-11T14:30:12.942Z,10.13
2019-05-11T14:35:12.828Z,10.19
2019-05-11T14:40:12.848Z,10.19
2019-05-11T14:45:12.808Z,10.13
2019-05-11T14:50:12.849Z,10.13
2019-05-11T14:55:12.965Z,10.13
2019-05-11T15:00:12.878Z,10.13
2019-05-11T15:05:12.826Z,10.13
2019-05-11T15:10:12.826Z,10.13
2019-05-11T15:15:12.822Z,10.13
2019-05-11T15:20:12.856Z,10.06
2019-05-11T15:25:12.811Z,10
2019-05-11T15:30:12.863Z,9.94
2019-05-11T15:35:12.819Z,9.88
2019-05-11T15:40:12.777Z,9.88
2019-05-11T15:45:12.820Z,9.81
2019-05-11T15:50:12.832Z,9.81
2019-05-11T15:55:12.818Z,9.81
2019-05-11T16:00:12.818Z,9.81
2019-05-11T16:05:12.801Z,9.75
2019-05-11T16:10:12.790Z,9.81
2019-05-11T16:15:19.097Z,9.75
2019-05-11T16:20:12.797Z,9.75
2019-05-11T16:25:19.594Z,9.81
2019-05-11T16:30:12.786Z,9.81
2019-05-11T16:35:12.775Z,9.69
2019-05-11T16:40:12.820Z,9.69
2019-05-11T16:45:12.781Z,9.69
2019-05-11T16:50:12.811Z,9.69
2019-05-11T16:55:12.776Z,9.63
2019-05-11T17:00:12.780Z,9.63
2019-05-11T17:05:25.108Z,-127
2019-05-11T17:10:12.767Z,-127
2019-05-11T17:15:12.752Z,-127
2019-05-11T17:20:12.762Z,-127
2019-05-11T17:25:12.758Z,-127
2019-05-11T17:30:12.754Z,-127
2019-05-11T17:35:12.789Z,-127
2019-05-11T17:40:12.749Z,-127
2019-05-11T17:45:12.701Z,-127
2019-05-11T17:50:12.741Z,-127
2019-05-11T17:55:12.784Z,-127
2019-05-11T18:00:12.692Z,-127
2019-05-11T18:05:12.776Z,-127
2019-05-11T18:10:12.721Z,-127
2019-05-11T18:15:12.712Z,-127
2019-05-11T18:20:17.481Z,-127
2019-05-11T18:25:14.080Z,-127
2019-05-11T18:30:12.717Z,-127
2019-05-11T18:35:12.725Z,-127
2019-05-11T18:40:12.721Z,-127
2019-05-11T18:45:12.666Z,-127
2019-05-11T18:50:12.753Z,-127
2019-05-11T18:55:12.699Z,-127
2019-05-11T19:00:12.687Z,-127
2019-05-11T19:05:12.734Z,-127
2019-05-11T19:10:12.718Z,-127
2019-05-11T19:15:12.686Z,-127
2019-05-11T19:20:12.701Z,-127
2019-05-11T19:25:12.809Z,-127
2019-05-11T19:30:12.682Z,-127
2019-05-11T19:35:12.709Z,-127
2019-05-11T19:40:12.702Z,-127
2019-05-11T19:45:12.676Z,-127
2019-05-11T19:50:12.704Z,-127
2019-05-11T19:55:12.664Z,-127
2019-05-11T20:00:12.641Z,-127
2019-05-11T20:05:12.657Z,-127
2019-05-11T20:10:12.661Z,-127
2019-05-11T20:15:12.690Z,-127
2019-05-11T20:20:12.612Z,-127
2019-05-11T20:25:12.686Z,-127
2019-05-11T20:30:12.607Z,-127
2019-05-11T20:35:12.689Z,-127
2019-05-11T20:40:12.639Z,-127
2019-05-11T20:45:12.645Z,-127
2019-05-11T20:50:12.677Z,-127
2019-05-11T20:55:12.635Z,-127
2019-05-11T21:00:12.640Z,-127
2019-05-11T21:05:12.622Z,-127
2019-05-11T21:10:12.641Z,-127
2019-05-11T21:15:12.610Z,-127
2019-05-11T21:20:12.611Z,-127
2019-05-11T21:25:12.611Z,-127
2019-05-11T21:30:12.614Z,-127
2019-05-11T21:35:12.644Z,-127
2019-05-11T21:40:12.604Z,-127
2019-05-11T21:45:12.670Z,-127
2019-05-11T21:50:12.641Z,-127
2019-05-11T21:55:12.592Z,-127
2019-05-11T22:00:12.648Z,-127
2019-05-11T22:05:12.587Z,-127
2019-05-11T22:10:12.578Z,-127
2019-05-11T22:15:12.633Z,-127
2019-05-11T22:20:12.580Z,-127
2019-05-11T22:25:12.542Z,-127
2019-05-11T22:30:12.607Z,-127
2019-05-11T22:35:12.571Z,-127
2019-05-11T22:40:12.578Z,-127
2019-05-11T22:45:12.572Z,-127
2019-05-11T22:55:12.570Z,-127
2019-05-11T23:05:12.610Z,-127
2019-05-11T23:40:12.552Z,-127
2019-05-11T23:45:12.547Z,-127
2019-05-11T23:50:12.559Z,-127
2019-05-11T23:55:12.492Z,-127
